Time;durP1;ratioP1;P1;durP2;ratioP2;P2;SDS_P1;SDS_P2;PMS_P1;PMS_P2;Temp;Humidity;BMP_temperature;BMP_pressure;BME280_temperature;BME280_humidity;BME280_pressure;Samples;Min_cycle;Max_cycle;Signal;HPM_P1;HPM_P2
2023/04/24 00:02:15;;;;;;;1.83;0.70;;;9.70;99.90;;;;;;5045477;28;20041;-61
2023/04/24 00:04:44;;;;;;;2.05;0.70;;;10.10;99.90;;;;;;5045494;28;20112;-61
2023/04/24 00:07:11;;;;;;;2.13;0.70;;;9.70;99.90;;;;;;5027033;28;20049;-61
2023/04/24 00:09:36;;;;;;;1.75;0.70;;;9.80;99.90;;;;;;5045213;28;20170;-61
2023/04/24 00:12:04;;;;;;;2.22;1.00;;;9.70;99.90;;;;;;5045089;28;20123;-61
2023/04/24 00:14:30;;;;;;;2.42;1.00;;;9.60;99.90;;;;;;5045561;28;20059;-61
2023/04/24 00:16:56;;;;;;;2.67;1.42;;;9.60;99.90;;;;;;5045221;28;20127;-61
2023/04/24 00:19:22;;;;;;;5.20;1.73;;;9.50;99.90;;;;;;5044648;28;20219;-61
2023/04/24 00:21:49;;;;;;;8.05;2.22;;;9.30;99.90;;;;;;5045545;28;20045;-61
2023/04/24 00:24:17;;;;;;;4.10;1.95;;;9.70;99.90;;;;;;5027495;28;20045;-61
2023/04/24 00:26:42;;;;;;;4.32;1.83;;;9.60;99.90;;;;;;5045273;28;20087;-60
2023/04/24 00:29:08;;;;;;;8.88;2.72;;;10.00;99.90;;;;;;5045271;28;20148;-61
2023/04/24 00:31:36;;;;;;;7.25;2.45;;;9.80;99.90;;;;;;5010686;28;20457;-61
2023/04/24 00:34:03;;;;;;;4.88;2.53;;;9.60;99.90;;;;;;5044832;28;20087;-61
2023/04/24 00:36:30;;;;;;;4.03;2.53;;;9.40;99.90;;;;;;5027560;28;20427;-61
2023/04/24 00:38:56;;;;;;;6.60;2.92;;;9.80;99.90;;;;;;5045641;28;20487;-60
2023/04/24 00:41:22;;;;;;;4.63;2.60;;;9.40;99.90;;;;;;5045214;28;20049;-61
2023/04/24 00:43:48;;;;;;;5.57;2.75;;;9.60;99.90;;;;;;5045252;28;20079;-61
2023/04/24 00:46:15;;;;;;;11.50;3.90;;;9.60;99.90;;;;;;5045250;28;20048;-60
2023/04/24 00:48:40;;;;;;;15.50;4.10;;;9.40;99.90;;;;;;5045148;28;20037;-61
2023/04/24 00:51:07;;;;;;;8.85;3.20;;;9.60;99.90;;;;;;5044490;28;20051;-61
2023/04/24 00:53:32;;;;;;;9.02;3.30;;;9.70;99.90;;;;;;5026453;28;20179;-61
2023/04/24 00:55:59;;;;;;;7.93;3.70;;;9.50;99.90;;;;;;5044019;28;20765;-60
2023/04/24 00:58:26;;;;;;;7.93;3.65;;;9.50;99.90;;;;;;5025993;28;20049;-60
2023/04/24 01:00:53;;;;;;;10.63;3.80;;;9.30;99.90;;;;;;5044517;28;20107;-60
2023/04/24 01:03:26;;;;;;;10.73;3.55;;;9.70;99.90;;;;;;5044153;28;20155;-61
2023/04/24 01:05:52;;;;;;;;;;;9.40;99.90;;;;;;5026684;28;20049;-61
2023/04/24 01:08:18;;;;;;;8.43;3.42;;;9.40;99.90;;;;;;5043888;28;19917;-61
2023/04/24 01:10:45;;;;;;;7.35;3.03;;;9.50;99.90;;;;;;5044142;28;20036;-61
2023/04/24 01:13:11;;;;;;;9.65;3.60;;;9.50;99.90;;;;;;5043406;28;20503;-60
2023/04/24 01:15:37;;;;;;;9.63;3.53;;;9.50;99.90;;;;;;5025992;28;20073;-60
2023/04/24 01:18:21;;;;;;;17.65;4.60;;;9.40;99.90;;;;;;5019167;28;20748;-61
2023/04/24 01:21:04;;;;;;;13.65;5.00;;;10.10;99.90;;;;;;5031369;28;20049;-60
2023/04/24 01:24:07;;;;;;;11.10;4.32;;;9.40;99.90;;;;;;5029097;28;20053;-61
2023/04/24 01:34:14;;;;;;;11.38;4.65;;;9.50;99.90;;;;;;5009174;28;20051;-61
2023/04/24 01:37:17;;;;;;;17.67;6.05;;;9.50;99.90;;;;;;5032289;28;20037;-61
2023/04/24 01:46:45;;;;;;;13.90;6.72;;;9.50;99.90;;;;;;4981794;28;20057;-62
2023/04/24 01:49:11;;;;;;;12.65;6.35;;;9.70;99.90;;;;;;5035421;28;20053;-61
2023/04/24 01:51:36;;;;;;;13.02;6.68;;;9.70;99.90;;;;;;5044044;28;20045;-61
2023/04/24 01:54:02;;;;;;;16.52;7.10;;;9.60;99.90;;;;;;5044018;28;20137;-61
2023/04/24 01:56:34;;;;;;;12.70;7.07;;;9.40;99.90;;;;;;5046219;28;20060;-61
2023/04/24 01:59:02;;;;;;;14.65;7.45;;;9.70;99.90;;;;;;5030151;28;20049;-61
2023/04/24 02:01:34;;;;;;;12.05;6.78;;;9.60;99.90;;;;;;5048317;28;20139;-61
2023/04/24 02:04:00;;;;;;;10.85;6.88;;;9.50;99.90;;;;;;5047944;28;20435;-61
2023/04/24 02:06:26;;;;;;;11.00;7.22;;;9.80;99.90;;;;;;5047802;28;20080;-61
2023/04/24 02:08:52;;;;;;;11.80;8.00;;;9.70;99.90;;;;;;5048052;28;20096;-61
2023/04/24 02:11:18;;;;;;;11.05;7.63;;;9.40;99.90;;;;;;5029708;28;20045;-61
2023/04/24 02:13:44;;;;;;;11.15;7.50;;;9.60;99.90;;;;;;5047888;28;20053;-61
2023/04/24 02:16:10;;;;;;;12.77;8.32;;;9.40;99.90;;;;;;5047984;28;20048;-61
2023/04/24 02:18:35;;;;;;;11.75;8.45;;;9.40;99.90;;;;;;5047675;28;20604;-61
2023/04/24 02:21:02;;;;;;;11.32;8.57;;;9.40;99.90;;;;;;5047697;28;20122;-61
2023/04/24 02:23:28;;;;;;;12.20;9.43;;;9.10;99.90;;;;;;5047836;28;20159;-61
2023/04/24 02:25:54;;;;;;;13.98;8.82;;;9.20;99.90;;;;;;5048160;28;20120;-61
2023/04/24 02:28:20;;;;;;;14.25;8.95;;;9.00;99.90;;;;;;5047686;28;20043;-61
2023/04/24 02:30:45;;;;;;;11.40;8.65;;;9.00;99.90;;;;;;5047607;28;21123;-61
2023/04/24 02:33:11;;;;;;;12.45;9.07;;;9.00;99.90;;;;;;5047393;28;20044;-61
2023/04/24 02:35:37;;;;;;;11.75;9.13;;;8.90;99.90;;;;;;5047260;28;20773;-61
2023/04/24 02:38:03;;;;;;;14.20;9.43;;;9.00;99.90;;;;;;5047665;28;20060;-61
2023/04/24 02:40:29;;;;;;;14.82;9.68;;;9.30;99.90;;;;;;5028718;28;20057;-61
2023/04/24 02:42:55;;;;;;;13.23;9.95;;;8.90;99.90;;;;;;5029108;28;20056;-61
2023/04/24 02:45:21;;;;;;;12.68;9.15;;;9.40;99.90;;;;;;5046700;28;20029;-61
2023/04/24 02:47:46;;;;;;;12.65;9.43;;;8.90;99.90;;;;;;5028950;28;20037;-61
2023/04/24 02:50:12;;;;;;;13.55;9.50;;;9.10;99.90;;;;;;5046660;28;20041;-61
2023/04/24 02:52:37;;;;;;;15.25;9.48;;;9.00;99.90;;;;;;5046576;28;20038;-62
2023/04/24 02:55:04;;;;;;;12.55;9.13;;;9.00;99.90;;;;;;5046229;28;20144;-61
2023/04/24 02:57:29;;;;;;;15.43;9.93;;;8.80;99.90;;;;;;5046661;28;20056;-61
2023/04/24 02:59:55;;;;;;;16.35;9.38;;;9.00;99.90;;;;;;5047028;28;20049;-61
2023/04/24 03:02:21;;;;;;;14.05;9.70;;;8.80;99.90;;;;;;5046968;28;20485;-61
2023/04/24 03:04:48;;;;;;;14.05;9.80;;;9.50;99.90;;;;;;5046815;28;20041;-61
2023/04/24 03:07:14;;;;;;;14.73;10.48;;;9.20;99.90;;;;;;5045612;28;20206;-61
2023/04/24 03:09:40;;;;;;;15.00;10.90;;;8.90;99.90;;;;;;5046314;28;20128;-61
2023/04/24 03:12:06;;;;;;;15.68;10.20;;;9.00;99.90;;;;;;5028479;28;20112;-61
2023/04/24 03:14:32;;;;;;;17.40;10.30;;;9.00;99.90;;;;;;5046528;28;20124;-61
2023/04/24 03:16:57;;;;;;;15.55;10.00;;;8.90;99.90;;;;;;5046983;28;20599;-61
2023/04/24 03:19:23;;;;;;;16.55;10.68;;;9.10;99.90;;;;;;5028884;28;20049;-61
2023/04/24 03:21:49;;;;;;;15.30;10.13;;;9.00;99.90;;;;;;5046642;28;20041;-61
2023/04/24 03:24:15;;;;;;;15.80;10.20;;;8.90;99.90;;;;;;5046608;28;20090;-62
2023/04/24 03:26:41;;;;;;;21.13;10.90;;;9.00;99.90;;;;;;5046712;28;20116;-61
2023/04/24 03:29:07;;;;;;;16.17;10.15;;;9.60;99.90;;;;;;5046689;28;20119;-61
2023/04/24 03:31:32;;;;;;;19.35;10.98;;;9.00;99.90;;;;;;5046175;28;20201;-62
2023/04/24 03:33:58;;;;;;;15.32;10.27;;;8.80;99.90;;;;;;5046016;28;20127;-61
2023/04/24 03:36:24;;;;;;;17.25;11.80;;;8.80;99.90;;;;;;5046554;28;20810;-61
2023/04/24 03:38:49;;;;;;;15.95;10.75;;;8.80;99.90;;;;;;5045965;28;20051;-61
2023/04/24 03:41:15;;;;;;;18.42;11.63;;;8.90;99.90;;;;;;5045612;28;20076;-61
2023/04/24 03:43:41;;;;;;;19.85;11.43;;;9.10;99.90;;;;;;5045694;28;20049;-61
2023/04/24 03:46:09;;;;;;;19.67;11.85;;;9.10;99.90;;;;;;5045425;28;20086;-61
2023/04/24 03:48:35;;;;;;;20.95;11.98;;;8.80;99.90;;;;;;5045573;28;20047;-61
2023/04/24 03:51:00;;;;;;;19.45;11.32;;;8.90;99.90;;;;;;5045667;28;20041;-61
2023/04/24 03:53:26;;;;;;;18.77;11.52;;;8.80;99.90;;;;;;5045743;28;20063;-61
2023/04/24 03:55:53;;;;;;;18.58;12.35;;;8.80;99.90;;;;;;5045029;28;20106;-61
2023/04/24 03:58:19;;;;;;;21.83;12.38;;;8.80;99.90;;;;;;5045313;28;20554;-61
2023/04/24 04:00:46;;;;;;;23.75;12.50;;;8.80;99.90;;;;;;5045186;28;20128;-61
2023/04/24 04:03:13;;;;;;;17.23;10.45;;;9.00;99.90;;;;;;5045255;28;20048;-61
2023/04/24 04:05:39;;;;;;;18.77;11.05;;;8.80;99.90;;;;;;5045292;28;20063;-61
2023/04/24 04:08:05;;;;;;;17.52;11.13;;;8.90;99.90;;;;;;5045432;28;20487;-61
2023/04/24 04:10:31;;;;;;;15.45;10.98;;;8.70;99.90;;;;;;5045254;28;20043;-61
2023/04/24 04:12:56;;;;;;;16.38;10.35;;;8.80;99.90;;;;;;5027219;28;20049;-61
2023/04/24 04:15:23;;;;;;;15.90;10.07;;;9.00;99.90;;;;;;5045196;28;20040;-61
2023/04/24 04:17:48;;;;;;;16.77;10.32;;;8.70;99.90;;;;;;5044834;28;20112;-61
2023/04/24 04:20:14;;;;;;;15.90;10.02;;;9.10;99.90;;;;;;5045076;28;20400;-61
2023/04/24 04:22:40;;;;;;;14.60;9.43;;;9.40;99.90;;;;;;5044877;28;20052;-62
2023/04/24 04:25:06;;;;;;;14.93;9.38;;;9.00;99.90;;;;;;5044676;28;20045;-61
2023/04/24 04:27:32;;;;;;;17.52;9.85;;;8.60;99.90;;;;;;5026755;28;20738;-61
2023/04/24 04:30:04;;;;;;;15.45;9.27;;;8.70;99.90;;;;;;5026846;28;20129;-61
2023/04/24 04:32:33;;;;;;;15.82;8.95;;;8.90;99.90;;;;;;5026988;28;20052;-62
2023/04/24 04:35:02;;;;;;;18.10;9.35;;;8.80;99.90;;;;;;5044190;28;20517;-62
2023/04/24 04:37:38;;;;;;;13.05;8.57;;;8.60;99.90;;;;;;5026745;28;20061;-62
2023/04/24 04:40:07;;;;;;;15.98;8.75;;;9.00;99.90;;;;;;5044555;28;20394;-61
2023/04/24 04:42:40;;;;;;;13.00;8.50;;;8.70;99.90;;;;;;5044350;28;20083;-62
2023/04/24 04:45:09;;;;;;;18.33;9.38;;;8.90;99.90;;;;;;5044260;28;20049;-62
2023/04/24 04:47:35;;;;;;;16.80;8.45;;;8.70;99.90;;;;;;5026868;28;20120;-61
2023/04/24 04:50:01;;;;;;;15.38;8.52;;;8.80;99.90;;;;;;5044516;28;20140;-62
2023/04/24 04:52:27;;;;;;;14.95;9.05;;;9.50;99.90;;;;;;5044662;28;20072;-61
2023/04/24 04:54:53;;;;;;;14.57;7.82;;;9.30;99.90;;;;;;5044366;28;20162;-61
2023/04/24 04:57:18;;;;;;;13.02;8.75;;;8.80;99.90;;;;;;5045181;28;20136;-62
2023/04/24 04:59:44;;;;;;;14.82;8.98;;;8.80;99.90;;;;;;5044999;28;20793;-62
2023/04/24 05:02:10;;;;;;;17.17;9.25;;;8.80;99.90;;;;;;5027141;28;20041;-62
2023/04/24 05:04:36;;;;;;;17.25;8.65;;;8.80;99.90;;;;;;5026491;28;20742;-61
2023/04/24 05:07:01;;;;;;;16.98;7.97;;;9.20;99.90;;;;;;5044519;28;20041;-61
2023/04/24 05:09:29;;;;;;;15.20;8.32;;;8.80;99.90;;;;;;5026680;28;20051;-62
2023/04/24 05:11:55;;;;;;;18.13;8.10;;;9.00;99.90;;;;;;5043918;28;20403;-61
2023/04/24 05:14:21;;;;;;;17.17;8.60;;;8.90;99.90;;;;;;5044090;28;20045;-62
2023/04/24 05:16:47;;;;;;;14.52;8.48;;;8.80;99.90;;;;;;5026066;28;20064;-61
2023/04/24 05:19:13;;;;;;;25.92;8.32;;;9.30;99.90;;;;;;5044072;28;20033;-61
2023/04/24 05:21:40;;;;;;;13.75;7.30;;;9.10;99.90;;;;;;5043867;28;20490;-61
2023/04/24 05:24:06;;;;;;;13.63;7.45;;;8.90;99.90;;;;;;5043114;28;20703;-61
2023/04/24 05:26:32;;;;;;;12.57;6.70;;;9.10;99.90;;;;;;5044131;28;20052;-62
2023/04/24 05:28:57;;;;;;;13.95;6.65;;;9.10;99.90;;;;;;5043861;28;20037;-61
2023/04/24 05:31:23;;;;;;;11.25;5.75;;;8.90;99.90;;;;;;5046604;28;20620;-61
2023/04/24 05:33:49;;;;;;;14.23;5.88;;;8.90;99.90;;;;;;5048238;28;20118;-61
2023/04/24 05:36:15;;;;;;;15.90;6.60;;;8.90;99.90;;;;;;5047372;28;20125;-62
2023/04/24 05:38:40;;;;;;;11.00;5.90;;;8.90;99.90;;;;;;5048023;28;20044;-61
2023/04/24 05:41:06;;;;;;;12.23;6.47;;;8.90;99.90;;;;;;5047983;28;20045;-61
2023/04/24 05:43:31;;;;;;;13.98;6.72;;;9.10;99.90;;;;;;5047961;28;20475;-61
2023/04/24 05:45:57;;;;;;;14.80;6.40;;;8.80;99.90;;;;;;5047340;28;20079;-61
2023/04/24 05:48:23;;;;;;;18.50;7.20;;;8.70;99.90;;;;;;5047793;28;20471;-61
2023/04/24 05:50:49;;;;;;;14.60;7.18;;;9.10;99.90;;;;;;5048192;28;20119;-61
2023/04/24 05:53:15;;;;;;;15.45;6.95;;;8.90;99.90;;;;;;5047845;28;20124;-61
2023/04/24 05:55:41;;;;;;;19.20;7.72;;;8.90;99.90;;;;;;5048036;28;20057;-62
2023/04/24 05:58:06;;;;;;;22.15;7.45;;;8.90;99.90;;;;;;5047850;28;20060;-61
2023/04/24 06:00:33;;;;;;;18.58;7.22;;;9.60;99.90;;;;;;5047535;28;20116;-61
2023/04/24 06:03:00;;;;;;;21.70;7.95;;;9.00;99.90;;;;;;5047023;28;20052;-61
2023/04/24 06:05:26;;;;;;;16.95;7.35;;;9.00;99.90;;;;;;5047603;28;20623;-61
2023/04/24 06:07:52;;;;;;;21.98;7.32;;;8.90;99.90;;;;;;5047546;28;20056;-61
2023/04/24 06:10:18;;;;;;;19.40;7.40;;;9.00;99.90;;;;;;5047348;28;20056;-61
2023/04/24 06:12:43;;;;;;;22.15;7.65;;;9.00;99.90;;;;;;5048044;28;20479;-61
2023/04/24 06:15:09;;;;;;;13.93;6.50;;;9.30;99.90;;;;;;5047749;28;20103;-61
2023/04/24 06:17:35;;;;;;;13.85;6.50;;;9.00;99.90;;;;;;5047897;28;20045;-61
2023/04/24 06:20:03;;;;;;;13.82;5.88;;;9.10;99.90;;;;;;5047419;28;20052;-61
2023/04/24 06:22:29;;;;;;;17.45;6.28;;;9.00;99.90;;;;;;5047654;28;20149;-61
2023/04/24 06:24:55;;;;;;;16.95;5.97;;;9.10;99.90;;;;;;5047521;28;20057;-61
2023/04/24 06:27:20;;;;;;;18.83;5.85;;;9.20;99.90;;;;;;5047052;28;20041;-61
2023/04/24 06:29:52;;;;;;;16.85;5.88;;;9.10;99.90;;;;;;5047225;28;20862;-61
2023/04/24 06:32:18;;;;;;;11.20;4.53;;;9.10;99.90;;;;;;5047210;28;20032;-61
2023/04/24 06:34:43;;;;;;;18.33;5.30;;;9.20;99.90;;;;;;5047251;28;20037;-61
2023/04/24 06:37:09;;;;;;;16.02;5.60;;;9.20;99.90;;;;;;5046791;28;20052;-61
2023/04/24 06:39:35;;;;;;;15.20;5.22;;;9.20;99.90;;;;;;5046787;28;20049;-61
2023/04/24 06:42:00;;;;;;;18.50;5.70;;;9.60;99.90;;;;;;5045968;28;20048;-61
2023/04/24 06:44:26;;;;;;;21.30;5.47;;;9.30;99.90;;;;;;5046155;28;20044;-61
2023/04/24 06:46:52;;;;;;;15.02;6.03;;;9.40;99.90;;;;;;5046755;28;20037;-61
2023/04/24 06:49:17;;;;;;;12.73;4.75;;;9.30;99.90;;;;;;5046595;28;20094;-61
2023/04/24 06:51:43;;;;;;;16.52;4.90;;;9.30;99.90;;;;;;5046534;28;20434;-61
2023/04/24 06:54:09;;;;;;;16.35;5.00;;;9.70;99.90;;;;;;5046494;28;20449;-61
2023/04/24 06:56:35;;;;;;;9.77;4.60;;;9.40;99.90;;;;;;5046278;28;20060;-62
2023/04/24 06:59:00;;;;;;;12.73;4.38;;;9.60;99.90;;;;;;5046357;28;20041;-62
2023/04/24 07:01:27;;;;;;;14.90;4.85;;;9.70;99.90;;;;;;5046738;28;20390;-62
2023/04/24 07:03:52;;;;;;;9.82;4.60;;;9.50;99.90;;;;;;5046201;28;20045;-62
2023/04/24 07:06:21;;;;;;;12.07;4.97;;;9.50;99.90;;;;;;5045996;28;20613;-62
2023/04/24 07:08:47;;;;;;;12.40;5.30;;;9.60;99.90;;;;;;5046070;28;20049;-60
2023/04/24 07:11:13;;;;;;;13.05;5.20;;;9.40;99.90;;;;;;5046143;28;20091;-60
2023/04/24 07:13:41;;;;;;;9.07;4.28;;;9.50;99.90;;;;;;5046347;28;20045;-60
2023/04/24 07:16:08;;;;;;;9.50;3.40;;;9.40;99.90;;;;;;5046527;28;20040;-61
2023/04/24 07:18:36;;;;;;;6.63;2.80;;;9.40;99.90;;;;;;5046599;28;20099;-60
2023/04/24 07:21:02;;;;;;;12.38;3.33;;;9.40;99.90;;;;;;5042651;28;20583;-60
2023/04/24 07:23:27;;;;;;;18.20;4.07;;;9.40;99.90;;;;;;5046978;28;20048;-60
2023/04/24 07:25:53;;;;;;;14.20;4.85;;;9.40;99.90;;;;;;5047223;28;20073;-60
2023/04/24 07:28:19;;;;;;;12.80;4.78;;;9.50;99.90;;;;;;5029196;28;20084;-60
2023/04/24 07:30:44;;;;;;;15.50;5.45;;;9.50;99.90;;;;;;5046746;28;20597;-60
2023/04/24 07:33:12;;;;;;;51.53;11.20;;;9.50;99.90;;;;;;5046960;28;20434;-59
2023/04/24 07:35:38;;;;;;;37.78;9.45;;;9.80;99.90;;;;;;5028755;28;20041;-60
2023/04/24 07:38:29;;;;;;;29.83;10.30;;;9.80;99.90;;;;;;5035937;28;20043;-59
2023/04/24 07:48:36;;;;;;;28.88;9.38;;;9.90;99.90;;;;;;5035729;28;20728;-59
2023/04/24 07:51:42;;;;;;;33.08;10.05;;;10.00;99.90;;;;;;5005880;28;20053;-60
2023/04/24 08:07:54;;;;;;;7.15;2.03;;;9.90;99.90;;;;;;5026224;28;20135;-61
2023/04/24 08:14:01;;;;;;;9.82;3.22;;;9.80;99.90;;;;;;5027066;28;20801;-61
2023/04/24 08:20:26;;;;;;;8.57;2.70;;;9.90;99.90;;;;;;5019608;28;20053;-54
2023/04/24 08:30:54;;;;;;;12.75;4.45;;;10.00;99.90;;;;;;5025062;28;20445;-62
2023/04/24 08:51:33;;;;;;;21.10;8.30;;;9.10;99.90;;;;;;4973534;28;20060;-57
2023/04/24 09:51:10;;;;;;;64.78;18.65;;;7.90;99.90;;;;;;4992397;28;20073;-54
2023/04/24 10:04:56;;;;;;;40.78;16.17;;;8.50;99.90;;;;;;4944221;28;20057;-60
2023/04/24 10:26:32;;;;;;;30.48;11.80;;;8.30;99.90;;;;;;4940845;28;20092;-65
2023/04/24 10:38:46;;;;;;;24.33;11.70;;;8.30;99.90;;;;;;5013215;28;20079;-57
2023/04/24 10:45:06;;;;;;;22.92;9.77;;;9.70;99.90;;;;;;5007371;28;20095;-58
2023/04/24 11:11:15;;;;;;;12.93;6.60;;;8.50;99.90;;;;;;5026859;28;20771;-64
2023/04/24 11:26:30;;;;;;;14.35;4.93;;;8.50;99.90;;;;;;5023870;28;20080;-59
2023/04/24 11:29:49;;;;;;;10.60;4.57;;;8.40;99.90;;;;;;5009270;28;20119;-59
2023/04/24 11:32:45;;;;;;;11.05;5.07;;;8.40;99.90;;;;;;5021673;28;20081;-59
2023/04/24 11:35:24;;;;;;;10.18;4.10;;;8.40;99.90;;;;;;5021426;28;20475;-60
2023/04/24 11:45:14;;;;;;;7.47;3.40;;;8.90;99.90;;;;;;5046330;28;20091;-63
2023/04/24 11:51:49;;;;;;;10.52;3.35;;;8.70;99.90;;;;;;5012409;28;20071;-59
2023/04/24 11:59:04;;;;;;;7.40;2.67;;;8.40;99.90;;;;;;5019093;28;20036;-59
2023/04/24 12:13:12;;;;;;;7.05;2.25;;;8.90;99.90;;;;;;5022568;28;20055;-61
2023/04/24 12:19:23;;;;;;;11.07;1.92;;;8.70;99.90;;;;;;5020039;28;20137;-61
2023/04/24 12:22:20;;;;;;;7.43;1.65;;;8.50;99.90;;;;;;4986664;28;20498;-63
2023/04/24 13:42:49;;;;;;;3.53;1.02;;;8.10;99.90;;;;;;5035506;28;20071;-59
2023/04/24 13:45:27;;;;;;;5.95;0.90;;;8.10;99.90;;;;;;5032789;28;20065;-59
2023/04/24 13:48:11;;;;;;;6.57;0.70;;;8.10;99.90;;;;;;5034733;28;20041;-59
2023/04/24 14:01:55;;;;;;;4.95;0.88;;;7.70;99.90;;;;;;5036620;28;20944;-59
2023/04/24 14:08:35;;;;;;;3.33;0.43;;;8.00;99.90;;;;;;5037645;28;20762;-59
2023/04/24 14:11:10;;;;;;;1.85;0.38;;;8.20;99.90;;;;;;5038986;28;20036;-58
2023/04/24 14:22:32;;;;;;;2.78;0.32;;;8.40;99.90;;;;;;5039441;28;20402;-58
2023/04/24 14:24:58;;;;;;;1.15;0.30;;;8.60;99.90;;;;;;5038996;28;20056;-58
2023/04/24 14:34:45;;;;;;;3.13;0.32;;;8.30;99.90;;;;;;5036327;28;20115;-59
2023/04/24 14:37:16;;;;;;;3.15;0.30;;;8.20;99.90;;;;;;5036222;28;20072;-59
2023/04/24 14:39:42;;;;;;;4.43;0.40;;;8.20;99.90;;;;;;5032446;28;20045;-59
2023/04/24 14:42:55;;;;;;;4.57;0.50;;;8.50;99.90;;;;;;5035251;28;20284;-59
2023/04/24 14:53:05;;;;;;;7.22;0.50;;;8.10;99.90;;;;;;5035169;28;20587;-59
2023/04/24 15:02:30;;;;;;;5.20;1.02;;;8.00;99.90;;;;;;5008386;28;20844;-59
2023/04/24 15:05:40;;;;;;;7.03;0.93;;;8.00;99.90;;;;;;5002998;28;20037;-55
2023/04/24 15:09:08;;;;;;;11.70;1.70;;;6.90;99.90;;;;;;4983712;28;20040;-55
2023/04/24 15:12:12;;;;;;;11.23;1.20;;;8.80;99.90;;;;;;5000163;28;20055;-55
2023/04/24 15:34:08;;;;;;;11.38;2.22;;;8.00;99.90;;;;;;5016270;28;20886;-56
2023/04/24 15:36:34;;;;;;;9.77;1.20;;;8.00;99.90;;;;;;4992911;28;20091;-54
2023/04/24 15:39:01;;;;;;;7.97;1.38;;;7.90;99.90;;;;;;5013180;28;20117;-55
2023/04/24 15:41:27;;;;;;;10.93;1.83;;;8.00;99.90;;;;;;5021694;28;20041;-55
2023/04/24 15:43:53;;;;;;;7.30;1.90;;;7.90;99.90;;;;;;5013512;28;20057;-54
2023/04/24 15:46:18;;;;;;;8.80;1.90;;;7.90;99.90;;;;;;4994654;28;20053;-59
2023/04/24 15:48:44;;;;;;;11.68;1.77;;;8.30;99.90;;;;;;4972977;28;20054;-63
2023/04/24 15:51:10;;;;;;;9.00;1.50;;;8.00;99.90;;;;;;4981036;28;20037;-54
2023/04/24 15:53:36;;;;;;;15.77;3.22;;;8.00;99.90;;;;;;4971946;28;20041;-57
2023/04/24 15:56:02;;;;;;;8.68;1.48;;;8.10;99.90;;;;;;4992400;28;20049;-57
2023/04/24 15:58:28;;;;;;;10.48;2.22;;;8.00;99.90;;;;;;4981518;28;20038;-60
2023/04/24 16:00:54;;;;;;;10.05;2.03;;;8.80;99.90;;;;;;5002047;28;20045;-57
2023/04/24 16:03:20;;;;;;;12.70;2.15;;;8.30;99.90;;;;;;4984166;28;20088;-62
2023/04/24 16:05:46;;;;;;;7.15;1.90;;;8.00;99.90;;;;;;4980456;28;20115;-61
2023/04/24 16:08:14;;;;;;;9.80;1.95;;;8.00;99.90;;;;;;4978745;28;20698;-60
2023/04/24 16:10:40;;;;;;;9.75;3.70;;;8.10;99.90;;;;;;4984450;28;20042;-58
2023/04/24 16:13:08;;;;;;;8.57;1.63;;;8.20;99.90;;;;;;4984884;28;20699;-62
2023/04/24 16:15:35;;;;;;;8.88;2.28;;;8.10;99.90;;;;;;4983119;28;20048;-62
2023/04/24 16:18:00;;;;;;;14.07;2.90;;;8.00;99.90;;;;;;5003550;28;20052;-59
2023/04/24 16:20:26;;;;;;;8.40;2.20;;;8.00;99.90;;;;;;4997299;28;20045;-57
2023/04/24 16:22:52;;;;;;;13.13;2.50;;;8.10;99.90;;;;;;5020096;28;20686;-59
2023/04/24 16:25:18;;;;;;;10.75;3.05;;;8.40;99.90;;;;;;5000299;28;20053;-59
2023/04/24 16:27:45;;;;;;;10.00;2.28;;;8.20;99.90;;;;;;5002843;28;20401;-58
2023/04/24 16:30:11;;;;;;;8.40;2.63;;;8.00;99.90;;;;;;5023279;28;20068;-58
2023/04/24 16:32:37;;;;;;;12.88;2.28;;;8.00;99.90;;;;;;5016356;28;20845;-58
2023/04/24 16:35:03;;;;;;;10.90;1.88;;;8.00;99.90;;;;;;5022555;28;20132;-58
2023/04/24 16:37:29;;;;;;;12.55;2.60;;;8.00;99.90;;;;;;5021009;28;20067;-56
2023/04/24 16:39:55;;;;;;;11.13;2.15;;;8.30;99.90;;;;;;5000948;28;20522;-57
2023/04/24 16:42:21;;;;;;;5.10;2.00;;;8.40;99.90;;;;;;5027604;28;20371;-60
2023/04/24 16:44:47;;;;;;;9.05;2.45;;;8.00;99.90;;;;;;5028530;28;20039;-59
2023/04/24 16:47:13;;;;;;;11.95;2.45;;;7.90;99.90;;;;;;5046586;28;20063;-58
2023/04/24 16:49:39;;;;;;;9.68;2.05;;;8.10;99.90;;;;;;5029214;28;20060;-58
2023/04/24 16:52:06;;;;;;;12.85;2.35;;;8.70;99.90;;;;;;5046785;28;20041;-59
2023/04/24 16:54:34;;;;;;;13.90;2.72;;;8.00;99.90;;;;;;5046857;28;20475;-60
2023/04/24 16:57:00;;;;;;;10.55;2.67;;;8.00;99.90;;;;;;5045108;28;20059;-57
2023/04/24 16:59:27;;;;;;;9.07;2.92;;;7.90;99.90;;;;;;5046838;28;20064;-57
2023/04/24 17:01:52;;;;;;;13.00;2.67;;;8.30;99.90;;;;;;5046571;28;20041;-57
2023/04/24 17:04:18;;;;;;;16.85;2.72;;;8.00;99.90;;;;;;5028469;28;20051;-56
2023/04/24 17:06:44;;;;;;;14.70;2.13;;;8.40;99.90;;;;;;5046922;28;20040;-56
2023/04/24 17:09:11;;;;;;;15.85;2.78;;;8.60;99.90;;;;;;5046367;28;20114;-56
2023/04/24 17:11:37;;;;;;;15.13;2.90;;;8.30;99.90;;;;;;5028695;28;20600;-56
2023/04/24 17:14:04;;;;;;;14.50;2.95;;;8.30;99.90;;;;;;5046099;28;20065;-56
2023/04/24 17:16:30;;;;;;;8.13;2.50;;;8.00;99.90;;;;;;5041360;28;20037;-56
2023/04/24 17:18:56;;;;;;;5.90;2.30;;;8.00;99.90;;;;;;5039212;28;20079;-57
2023/04/24 17:21:22;;;;;;;6.78;2.20;;;7.90;99.90;;;;;;5032527;28;20119;-57
2023/04/24 17:23:47;;;;;;;8.90;1.98;;;7.90;99.90;;;;;;5045705;28;20475;-57
2023/04/24 17:26:13;;;;;;;12.48;2.00;;;8.40;99.90;;;;;;5046149;28;20060;-57
2023/04/24 17:28:39;;;;;;;4.78;1.75;;;7.80;99.90;;;;;;5050020;28;20444;-57
2023/04/24 17:31:04;;;;;;;14.63;2.63;;;7.80;99.90;;;;;;5050261;28;20044;-57
2023/04/24 17:33:30;;;;;;;14.10;3.10;;;8.30;99.90;;;;;;5050491;28;20036;-56
2023/04/24 17:36:02;;;;;;;8.18;1.95;;;8.00;99.90;;;;;;5032545;28;20041;-57
2023/04/24 17:38:28;;;;;;;7.80;2.30;;;8.00;99.90;;;;;;5050507;28;20049;-57
2023/04/24 17:40:54;;;;;;;10.23;2.75;;;8.00;99.90;;;;;;5050552;28;20056;-57
2023/04/24 17:43:21;;;;;;;6.57;2.55;;;7.80;99.90;;;;;;5050519;28;20041;-57
2023/04/24 17:45:50;;;;;;;8.55;2.05;;;7.60;99.90;;;;;;5032635;28;20053;-57
2023/04/24 17:48:17;;;;;;;10.65;2.80;;;7.80;99.90;;;;;;5050096;28;20403;-57
2023/04/24 17:50:43;;;;;;;11.88;2.78;;;7.70;99.90;;;;;;5050146;28;20041;-57
2023/04/24 17:53:09;;;;;;;5.78;2.33;;;7.50;99.90;;;;;;5031887;28;20103;-57
2023/04/24 17:55:35;;;;;;;9.32;2.80;;;7.50;99.90;;;;;;5031920;28;20060;-56
2023/04/24 17:58:02;;;;;;;8.38;2.75;;;7.50;99.90;;;;;;5015165;28;20045;-57
2023/04/24 18:00:34;;;;;;;10.65;2.72;;;7.40;99.90;;;;;;5049519;28;20091;-57
2023/04/24 18:03:02;;;;;;;8.27;2.35;;;8.30;99.90;;;;;;5049603;28;20049;-57
2023/04/24 18:05:29;;;;;;;6.30;2.63;;;7.90;99.90;;;;;;5049681;28;20410;-57
2023/04/24 18:07:55;;;;;;;6.78;2.05;;;7.30;99.90;;;;;;5031752;28;20053;-57
2023/04/24 18:10:21;;;;;;;6.50;2.22;;;7.20;99.90;;;;;;5032260;28;20053;-57
2023/04/24 18:12:47;;;;;;;6.47;2.15;;;7.10;99.90;;;;;;5048454;28;20033;-57
2023/04/24 18:15:13;;;;;;;10.95;2.78;;;7.30;99.90;;;;;;5049584;28;20084;-57
2023/04/24 18:17:39;;;;;;;7.07;2.17;;;7.20;99.90;;;;;;5031449;28;20437;-57
2023/04/24 18:20:05;;;;;;;10.00;3.15;;;7.10;99.90;;;;;;5013813;28;20053;-57
2023/04/24 18:22:31;;;;;;;6.45;1.70;;;7.20;99.90;;;;;;5047182;28;20148;-57
2023/04/24 18:24:57;;;;;;;8.18;1.85;;;7.50;99.90;;;;;;5047983;28;20049;-57
2023/04/24 18:27:24;;;;;;;4.80;1.45;;;6.90;99.90;;;;;;5042565;28;20052;-57
2023/04/24 18:29:52;;;;;;;3.08;1.10;;;7.10;99.90;;;;;;5047621;28;20048;-57
2023/04/24 18:32:18;;;;;;;5.50;2.20;;;6.80;99.90;;;;;;5047799;28;20141;-57
2023/04/24 18:34:44;;;;;;;6.68;2.00;;;7.10;99.90;;;;;;5047604;28;20056;-57
2023/04/24 18:37:09;;;;;;;4.63;1.55;;;7.00;99.90;;;;;;5047559;28;20045;-57
2023/04/24 18:39:35;;;;;;;4.03;1.83;;;7.40;99.90;;;;;;5047341;28;20045;-57
2023/04/24 18:42:01;;;;;;;3.22;1.75;;;7.60;99.90;;;;;;5029805;28;20045;-57
2023/04/24 18:44:26;;;;;;;7.78;2.92;;;6.80;99.90;;;;;;5047083;28;20131;-57
2023/04/24 18:46:52;;;;;;;5.60;2.00;;;7.00;99.90;;;;;;5029558;28;20080;-57
2023/04/24 18:49:18;;;;;;;5.30;1.90;;;6.90;99.90;;;;;;5047039;28;20216;-57
2023/04/24 18:51:43;;;;;;;5.05;1.63;;;7.30;99.90;;;;;;5047404;28;20037;-57
2023/04/24 18:54:09;;;;;;;7.07;2.30;;;7.00;99.90;;;;;;5029462;28;20822;-57
2023/04/24 18:56:35;;;;;;;7.95;2.13;;;7.00;99.90;;;;;;5029397;28;20048;-57
2023/04/24 18:59:00;;;;;;;9.32;2.45;;;6.90;99.90;;;;;;5036786;28;20041;-57
2023/04/24 19:01:26;;;;;;;6.50;2.50;;;6.90;99.90;;;;;;5027536;28;20077;-57
2023/04/24 19:03:52;;;;;;;7.90;3.92;;;6.90;99.90;;;;;;5027659;28;20107;-57
2023/04/24 19:06:17;;;;;;;5.78;2.95;;;7.70;99.90;;;;;;5009808;28;20663;-57
2023/04/24 19:08:43;;;;;;;7.38;3.03;;;7.70;99.90;;;;;;5027759;28;20392;-57
2023/04/24 19:11:10;;;;;;;8.85;2.95;;;6.80;99.90;;;;;;5027429;28;20111;-57
2023/04/24 19:13:36;;;;;;;8.52;2.88;;;7.00;99.90;;;;;;5008970;28;20099;-57
2023/04/24 19:16:01;;;;;;;7.28;3.42;;;6.70;99.90;;;;;;5008721;28;20345;-57
2023/04/24 19:18:28;;;;;;;6.35;2.90;;;6.70;99.90;;;;;;5016613;28;20610;-57